Flight Track Log - Related Links

Times and Time Zones

All times are in EDT time to prevent confusion due to time zone crossing. See the AAL1862 flight status page for this flight to view local times or setup timezone preferences in your user account.

Time Position Orientation Groundspeed Altitude Reporting Facility
EDT Latitude Longitude Course Direction KTS MPH feet Rate Location/Type
Thu 08:34:55 AM 29.5222 -98.4592 10° North 163 188 1,600  Level Houston Center
Thu 08:35:25 AM 29.5058 -98.4394 134° Southeast 170 196 2,700 1,909 Climbing Houston Center
Thu 08:36:01 AM 29.4931 -98.3989 110° East 232 267 3,700 2,598 Climbing Houston Center
Thu 08:37:00 AM 29.7891 -98.4273 North  Level FlightAware Approximate
Thu 08:37:02 AM 29.5194 -98.3214 69° East 266 306 6,900  Level Houston Center
Thu 08:38:00 AM 29.8752 -98.4201 North  Level FlightAware Approximate
Thu 08:38:04 AM 29.5647 -98.2442 56° Northeast 281 323 10,400  Level Houston Center
Thu 08:39:00 AM 29.9609 -98.4078 10° North  Level FlightAware Approximate
Thu 08:39:06 AM 29.6517 -98.2567 353° North 324 373 12,500  Level Houston Center
Thu 08:40:00 AM 30.0460 -98.3908 10° North  Level FlightAware Approximate
Thu 08:40:07 AM 29.7500 -98.2861 345° North 338 389 15,300  Level Houston Center
Thu 08:41:09 AM 29.8444 -98.3150 345° North 355 409 16,800 1,839 Climbing Houston Center
Thu 08:42:11 AM 29.9489 -98.3464 345° North 385 443 19,100 2,177 Climbing Houston Center
Thu 08:43:13 AM 30.0672 -98.3811 346° North 407 468 21,300 1,951 Climbing Houston Center
Thu 08:44:14 AM 30.1825 -98.3819 360° North 423 487 23,100 1,756 Climbing Houston Center
Thu 08:45:16 AM 30.2961 -98.3656 North 426 490 24,900 1,500 Climbing Houston Center
Thu 08:46:18 AM 30.4189 -98.3481 North 435 501 26,200 1,500 Climbing Houston Center
Thu 08:47:20 AM 30.5458 -98.3292 North 447 514 28,000 1,317 Climbing Houston Center
Thu 08:48:21 AM 30.6722 -98.3106 North 450 518 28,900 488 Climbing Houston Center
Thu 08:49:23 AM 30.7969 -98.2925 North 448 516 29,000 48 Climbing Houston Center
Thu 08:50:25 AM 30.9406 -98.2711 North 443 510 29,000  Level Houston Center
Thu 08:51:27 AM 31.0647 -98.2525 North 443 510 29,000  Level Houston Center
Thu 08:52:28 AM 31.1803 -98.1936 24° Northeast 452 520 29,000  Level Houston Center
Thu 08:53:30 AM 31.2961 -98.1317 25° Northeast 451 519 29,000 -242 Level Houston Center
Thu 08:54:32 AM 31.4136 -98.0708 24° Northeast 453 521 28,500 -1,403 Descending Houston Center
Thu 08:55:34 AM 31.5306 -98.0117 23° Northeast 452 520 26,100 -2,146 Descending Houston Center
Thu 08:56:35 AM 31.6447 -97.9492 25° Northeast 448 516 24,100 -2,049 Descending Houston Center
Thu 08:57:37 AM 31.7575 -97.8897 24° Northeast 442 509 21,900 -1,935 Descending Houston Center
Thu 08:58:39 AM 31.8667 -97.8319 24° Northeast 430 495 20,100 -1,781 Descending Houston Center
Thu 08:59:45 AM 31.9831 -97.7686 25° Northeast 413 475 18,100 -1,762 Descending Fort Worth Center
Thu 09:00:45 AM 32.0939 -97.7100 24° Northeast 400 460 16,400 -1,650 Descending Fort Worth Center
Thu 09:01:45 AM 32.1839 -97.6614 25° Northeast 400 460 14,800 -1,700 Descending Fort Worth Center
Thu 09:02:45 AM 32.2925 -97.6050 24° Northeast 394 453 13,000 -1,500 Descending Fort Worth Center
Thu 09:03:45 AM 32.3781 -97.5561 26° Northeast 383 441 11,800 -1,100 Descending Fort Worth Center
Thu 09:04:45 AM 32.4681 -97.5069 25° Northeast 338 389 10,800 -1,400 Descending Fort Worth Center
Thu 09:05:45 AM 32.5203 -97.4456 45° Northeast 294 338 9,000 -2,000 Descending Fort Worth Center
Thu 09:06:45 AM 32.5828 -97.3764 43° Northeast 279 321 6,800 -1,800 Descending Fort Worth Center
Thu 09:07:45 AM 32.6517 -97.3542 15° North 262 302 5,400 -900 Descending Fort Worth Center
Thu 09:08:45 AM 32.7331 -97.3319 13° North 269 310 5,000 -200 Descending Fort Worth Center
Thu 09:09:45 AM 32.8019 -97.3122 14° North 275 316 5,000 -550 Level Fort Worth Center
Thu 09:10:45 AM 32.8833 -97.2872 14° North 275 316 3,900 -500 Descending Fort Worth Center
Thu 09:11:45 AM 32.9336 -97.2700 16° North 235 270 4,000 -400 Climbing Fort Worth Center
Thu 09:12:45 AM 32.9939 -97.2500 16° North 197 227 3,100 -500 Descending Fort Worth Center
Thu 09:13:45 AM 32.9939 -97.1956 90° East 153 176 3,000 -450 Descending Fort Worth Center
Thu 09:14:45 AM 32.9731 -97.1461 117° Southeast 140 161 2,200 -850 Descending Fort Worth Center
Thu 09:15:45 AM 32.9394 -97.1164 143° Southeast 135 155 1,300 -900 Descending Fort Worth Center

Login

Don't have an account? Register now (free) for customized features, flight alerts, and more!